createdAt,value
2024-03-14T00:00:50.807Z,63.80
2024-03-14T00:03:24.830Z,63.80
2024-03-14T00:05:57.734Z,63.80
2024-03-14T00:08:30.841Z,63.90
2024-03-14T00:11:09.150Z,64.10
2024-03-14T00:13:43.198Z,64.20
2024-03-14T00:16:25.781Z,64.20
2024-03-14T00:19:01.314Z,64.20
2024-03-14T00:21:34.146Z,64.20
2024-03-14T00:24:11.690Z,64.30
2024-03-14T00:26:46.030Z,64.20
2024-03-14T00:29:20.676Z,64.20
2024-03-14T00:32:01.655Z,64.30
2024-03-14T00:34:34.336Z,64.30
2024-03-14T00:37:08.574Z,64.30
2024-03-14T00:39:42.612Z,64.30
2024-03-14T00:42:17.500Z,64.30
2024-03-14T00:44:53.851Z,64.30
2024-03-14T00:47:30.293Z,64.30
2024-03-14T00:50:05.690Z,64.30
2024-03-14T00:52:40.593Z,64.20
2024-03-14T00:55:20.170Z,64.30
2024-03-14T00:57:54.952Z,64.20
2024-03-14T01:00:29.784Z,64.20
2024-03-14T01:03:02.544Z,64.20
2024-03-14T01:05:37.111Z,64.10
2024-03-14T01:08:09.746Z,64.10
2024-03-14T01:10:42.470Z,64.10
2024-03-14T01:13:15.108Z,64.10
2024-03-14T01:15:47.992Z,64.00
2024-03-14T01:18:23.130Z,64.10
2024-03-14T01:20:58.481Z,64.00
2024-03-14T01:23:32.010Z,64.00
2024-03-14T01:26:05.395Z,64.00
2024-03-14T01:28:39.525Z,64.10
2024-03-14T01:31:14.258Z,64.10
2024-03-14T01:33:47.733Z,64.10
2024-03-14T01:36:21.919Z,64.20
2024-03-14T01:38:54.709Z,64.10
2024-03-14T01:41:28.280Z,64.10
2024-03-14T01:44:01.456Z,64.10
2024-03-14T01:46:34.961Z,64.00
2024-03-14T01:49:07.738Z,64.10
2024-03-14T01:51:41.121Z,64.00
2024-03-14T01:54:16.087Z,64.00
2024-03-14T01:57:01.588Z,64.10
2024-03-14T01:59:57.687Z,64.00
2024-03-14T02:02:48.780Z,64.00
2024-03-14T02:05:55.535Z,64.00
2024-03-14T02:08:39.671Z,63.90
2024-03-14T02:11:26.109Z,63.90
2024-03-14T02:14:02.713Z,63.90
2024-03-14T02:16:37.009Z,64.00
2024-03-14T02:19:22.023Z,64.00
2024-03-14T02:22:08.495Z,63.90
2024-03-14T02:24:45.090Z,63.90
2024-03-14T02:27:25.520Z,63.90
2024-03-14T02:30:10.890Z,63.90
2024-03-14T02:32:58.496Z,63.80
2024-03-14T02:35:45.659Z,63.90
2024-03-14T02:38:30.890Z,63.80
2024-03-14T02:41:05.561Z,63.80
2024-03-14T02:43:44.070Z,63.90
2024-03-14T02:46:18.978Z,63.90
2024-03-14T02:48:58.434Z,63.80
2024-03-14T02:51:33.624Z,63.80
2024-03-14T02:54:10.222Z,63.90
2024-03-14T02:56:52.115Z,63.90
2024-03-14T02:59:26.024Z,63.90
2024-03-14T03:02:03.180Z,63.80
2024-03-14T03:04:36.596Z,63.90
2024-03-14T03:07:11.458Z,63.90
2024-03-14T03:09:47.716Z,63.90
2024-03-14T03:12:21.399Z,63.80
2024-03-14T03:15:02.256Z,63.70
2024-03-14T03:17:41.540Z,63.60
2024-03-14T03:20:22.483Z,63.60
2024-03-14T03:23:19.569Z,63.30
2024-03-14T03:26:05.243Z,63.30
2024-03-14T03:28:59.021Z,63.30
2024-03-14T03:31:50.400Z,63.20
2024-03-14T03:34:27.923Z,63.10
2024-03-14T03:37:01.238Z,63.10
2024-03-14T03:39:36.620Z,63.00
2024-03-14T03:42:13.877Z,62.90
2024-03-14T03:44:52.506Z,62.80
2024-03-14T03:47:36.595Z,62.70
2024-03-14T03:50:18.743Z,62.60
2024-03-14T03:52:57.749Z,62.60
2024-03-14T03:55:42.330Z,62.50
2024-03-14T03:58:31.925Z,62.40
2024-03-14T04:01:27.721Z,62.30
2024-03-14T04:04:35.161Z,62.30
2024-03-14T04:07:21.819Z,62.40
2024-03-14T04:09:57.000Z,62.40
2024-03-14T04:12:35.365Z,62.30
2024-03-14T04:15:17.322Z,62.30
2024-03-14T04:17:57.353Z,62.20
2024-03-14T04:20:50.135Z,62.20
2024-03-14T04:23:31.408Z,62.20
2024-03-14T04:26:12.700Z,62.20
2024-03-14T04:28:52.971Z,62.00
2024-03-14T04:31:36.508Z,62.00
2024-03-14T04:34:28.836Z,61.90
2024-03-14T04:37:05.859Z,61.90
2024-03-14T04:39:57.836Z,61.90
2024-03-14T04:42:44.167Z,61.80
2024-03-14T04:45:19.213Z,61.70
2024-03-14T04:47:53.496Z,61.70
2024-03-14T04:50:34.652Z,61.60
2024-03-14T04:53:20.224Z,61.50
2024-03-14T04:56:04.645Z,61.40
2024-03-14T04:58:39.355Z,61.40
2024-03-14T05:01:13.406Z,61.40
2024-03-14T05:03:50.420Z,61.40
2024-03-14T05:06:46.236Z,61.40
2024-03-14T05:09:32.339Z,61.40
2024-03-14T05:12:38.309Z,61.40
2024-03-14T05:15:20.000Z,61.40
2024-03-14T05:18:08.052Z,61.50
2024-03-14T05:20:57.427Z,61.60
2024-03-14T05:23:39.580Z,61.60
2024-03-14T05:26:23.174Z,61.70
2024-03-14T05:29:01.662Z,61.70
2024-03-14T05:31:38.660Z,61.90
2024-03-14T05:34:32.822Z,62.00
2024-03-14T05:37:38.776Z,62.10
2024-03-14T05:40:25.583Z,62.00
2024-03-14T05:43:08.049Z,61.90
2024-03-14T05:45:53.794Z,61.90
2024-03-14T05:48:40.795Z,61.80
2024-03-14T05:51:21.822Z,61.70
2024-03-14T05:54:01.007Z,61.60
2024-03-14T05:56:44.279Z,61.60
2024-03-14T05:59:54.558Z,61.40
2024-03-14T06:02:36.573Z,61.30
2024-03-14T06:05:30.723Z,61.00
2024-03-14T06:08:17.178Z,61.00
2024-03-14T06:10:57.868Z,60.80
2024-03-14T06:13:36.549Z,60.70
2024-03-14T06:16:18.493Z,60.60
2024-03-14T06:18:56.344Z,60.40
2024-03-14T06:21:43.601Z,60.40
2024-03-14T06:24:34.443Z,60.20
2024-03-14T06:27:20.875Z,60.10
2024-03-14T06:30:26.048Z,60.00
2024-03-14T06:33:19.080Z,59.80
2024-03-14T06:35:57.218Z,59.70
2024-03-14T06:38:37.704Z,59.50
2024-03-14T06:41:11.563Z,59.40
2024-03-14T06:43:45.065Z,59.20
2024-03-14T06:46:18.645Z,59.10
2024-03-14T06:48:59.925Z,59.10
2024-03-14T06:51:35.604Z,58.90
2024-03-14T06:54:14.222Z,58.70
2024-03-14T06:57:06.221Z,58.60
2024-03-14T06:59:46.936Z,58.50
2024-03-14T07:02:38.691Z,58.40
2024-03-14T07:05:35.051Z,58.20
2024-03-14T07:08:09.770Z,58.20
2024-03-14T07:11:11.417Z,58.10
2024-03-14T07:14:06.266Z,58.00
2024-03-14T07:16:46.139Z,57.90
2024-03-14T07:19:24.272Z,57.90
2024-03-14T07:22:02.720Z,57.70
2024-03-14T07:24:41.429Z,57.50
2024-03-14T07:27:17.581Z,57.30
2024-03-14T07:29:55.194Z,57.20
2024-03-14T07:32:30.727Z,57.20
2024-03-14T07:35:07.491Z,57.00
2024-03-14T07:37:51.008Z,57.00
2024-03-14T07:40:35.698Z,56.80
2024-03-14T07:43:16.335Z,56.80
2024-03-14T07:46:01.288Z,56.70
2024-03-14T07:48:36.904Z,56.60
2024-03-14T07:51:11.878Z,56.80
2024-03-14T07:53:45.758Z,56.70
2024-03-14T07:56:32.149Z,56.40
2024-03-14T07:59:17.439Z,56.40
2024-03-14T08:02:04.881Z,56.20
2024-03-14T08:04:51.605Z,56.90
2024-03-14T08:08:01.388Z,55.90
2024-03-14T08:11:14.463Z,55.60
2024-03-14T08:14:07.606Z,56.40
2024-03-14T08:16:49.998Z,55.50
2024-03-14T08:19:32.611Z,55.50
2024-03-14T08:22:09.350Z,55.50
2024-03-14T08:24:54.409Z,55.60
2024-03-14T08:27:32.667Z,55.30
2024-03-14T08:30:11.006Z,55.30
2024-03-14T08:32:52.787Z,55.20
2024-03-14T08:35:29.071Z,55.20
2024-03-14T08:38:09.527Z,55.20
2024-03-14T08:40:46.814Z,55.20
2024-03-14T08:43:20.148Z,55.30
2024-03-14T08:45:54.350Z,55.20
2024-03-14T08:48:30.222Z,55.00
2024-03-14T08:51:07.052Z,54.80
2024-03-14T08:53:59.679Z,54.70
2024-03-14T08:56:32.350Z,54.60
2024-03-14T08:59:05.695Z,54.60
2024-03-14T09:01:38.382Z,54.40
2024-03-14T09:04:12.302Z,54.20
2024-03-14T09:06:45.048Z,54.00
2024-03-14T09:09:38.676Z,53.90
2024-03-14T09:12:17.911Z,53.80
2024-03-14T09:14:51.889Z,54.10
2024-03-14T09:17:24.797Z,53.60
2024-03-14T09:19:57.477Z,53.40
2024-03-14T09:22:30.156Z,53.20
2024-03-14T09:25:03.193Z,52.90
2024-03-14T09:27:35.887Z,52.80
2024-03-14T09:30:10.384Z,53.00
2024-03-14T09:32:43.627Z,52.80
2024-03-14T09:35:17.910Z,52.70
2024-03-14T09:37:50.581Z,52.80
2024-03-14T09:40:25.104Z,52.30
2024-03-14T09:43:01.193Z,51.90
2024-03-14T09:45:37.158Z,51.90
2024-03-14T09:48:12.991Z,51.80
2024-03-14T09:50:48.485Z,51.70
2024-03-14T09:53:25.480Z,51.40
2024-03-14T09:55:59.659Z,51.40
2024-03-14T09:58:32.498Z,51.50
2024-03-14T10:01:11.549Z,51.20
2024-03-14T10:03:44.393Z,51.10
2024-03-14T10:06:20.060Z,51.00
2024-03-14T10:08:53.810Z,50.90
2024-03-14T10:11:26.564Z,51.50
2024-03-14T10:14:23.491Z,50.70
2024-03-14T10:16:58.419Z,50.40
2024-03-14T10:19:32.214Z,50.40
2024-03-14T10:22:07.124Z,50.30
2024-03-14T10:24:40.607Z,50.20
2024-03-14T10:27:13.283Z,50.00
2024-03-14T10:29:46.954Z,49.90
2024-03-14T10:32:20.915Z,49.70
2024-03-14T10:34:54.473Z,49.50
2024-03-14T10:37:32.256Z,49.30
2024-03-14T10:40:10.931Z,49.20
2024-03-14T10:42:50.022Z,49.30
2024-03-14T10:45:23.456Z,49.20
2024-03-14T10:47:57.114Z,48.90
2024-03-14T10:50:34.654Z,49.00
2024-03-14T10:53:08.310Z,48.80
2024-03-14T10:55:48.990Z,48.80
2024-03-14T10:58:24.304Z,48.70
2024-03-14T11:00:58.106Z,48.30
2024-03-14T11:03:33.528Z,48.20
2024-03-14T11:06:20.584Z,48.40
2024-03-14T11:08:56.799Z,48.60
2024-03-14T11:11:33.234Z,48.60
2024-03-14T11:14:13.190Z,48.50
2024-03-14T11:16:51.219Z,48.10
2024-03-14T11:19:24.144Z,48.40
2024-03-14T11:21:57.575Z,48.50
2024-03-14T11:24:32.701Z,48.70
2024-03-14T11:27:06.722Z,48.70
2024-03-14T11:29:40.602Z,48.50
2024-03-14T11:32:25.417Z,48.50
2024-03-14T11:35:17.943Z,48.50
2024-03-14T11:37:54.733Z,48.50
2024-03-14T11:40:34.250Z,48.50
2024-03-14T11:43:08.721Z,48.50
2024-03-14T11:45:42.097Z,48.60
2024-03-14T11:48:20.772Z,48.50
2024-03-14T11:50:55.460Z,48.40
2024-03-14T11:53:31.434Z,48.60
2024-03-14T11:56:10.748Z,48.70
2024-03-14T11:58:45.962Z,48.80
2024-03-14T12:01:25.240Z,48.70
2024-03-14T12:04:04.584Z,48.70
2024-03-14T12:06:37.498Z,48.90
2024-03-14T12:09:21.216Z,49.10
2024-03-14T12:11:55.161Z,48.90
2024-03-14T12:14:29.969Z,48.50
2024-03-14T12:17:03.217Z,48.80
2024-03-14T12:19:35.959Z,48.80
2024-03-14T12:22:08.641Z,48.90
2024-03-14T12:24:41.365Z,49.10
2024-03-14T12:27:14.197Z,50.20
2024-03-14T12:29:50.043Z,49.30
2024-03-14T12:32:23.867Z,49.50
2024-03-14T12:34:56.871Z,49.80
2024-03-14T12:37:30.729Z,49.90
2024-03-14T12:40:09.418Z,50.00
2024-03-14T12:42:42.526Z,50.20
2024-03-14T12:45:15.985Z,50.40
2024-03-14T12:47:49.814Z,50.70
2024-03-14T12:50:23.482Z,51.00
2024-03-14T12:53:07.122Z,51.10
2024-03-14T12:55:40.098Z,51.10
2024-03-14T12:58:22.418Z,51.10
2024-03-14T13:00:58.014Z,51.40
2024-03-14T13:03:30.979Z,51.50
2024-03-14T13:06:05.232Z,51.70
2024-03-14T13:08:38.022Z,52.60
2024-03-14T13:11:11.259Z,52.00
2024-03-14T13:13:44.483Z,52.10
2024-03-14T13:16:26.351Z,52.60
2024-03-14T13:18:59.067Z,53.10
2024-03-14T13:21:45.052Z,53.40
2024-03-14T13:24:18.218Z,53.40
2024-03-14T13:26:55.509Z,53.30
2024-03-14T13:29:28.742Z,53.40
2024-03-14T13:32:01.356Z,53.30
2024-03-14T13:34:34.729Z,53.20
2024-03-14T13:37:07.422Z,53.30
2024-03-14T13:39:40.063Z,53.20
2024-03-14T13:42:12.847Z,53.10
2024-03-14T13:44:47.563Z,53.00
2024-03-14T13:47:27.261Z,53.10
2024-03-14T13:50:02.387Z,53.10
2024-03-14T13:52:36.535Z,53.10
2024-03-14T13:55:25.898Z,53.00
2024-03-14T13:57:58.942Z,52.90
2024-03-14T14:00:47.758Z,53.00
2024-03-14T14:03:25.083Z,53.10
2024-03-14T14:05:58.316Z,53.40
2024-03-14T14:08:30.983Z,53.60
2024-03-14T14:11:05.448Z,53.50
2024-03-14T14:13:38.163Z,53.40
2024-03-14T14:16:14.426Z,53.70
2024-03-14T14:18:47.873Z,53.90
2024-03-14T14:21:20.767Z,54.00
2024-03-14T14:23:53.600Z,55.00
2024-03-14T14:26:26.504Z,54.90
2024-03-14T14:28:59.196Z,54.00
2024-03-14T14:31:31.793Z,54.20
2024-03-14T14:34:05.226Z,54.40
2024-03-14T14:36:39.351Z,54.60
2024-03-14T14:39:12.146Z,54.70
2024-03-14T14:41:44.760Z,54.70
2024-03-14T14:44:17.409Z,54.80
2024-03-14T14:46:52.234Z,54.80
2024-03-14T14:49:24.888Z,54.90
2024-03-14T14:51:58.111Z,55.10
2024-03-14T14:54:30.854Z,55.20
2024-03-14T14:57:04.879Z,55.40
2024-03-14T14:59:40.929Z,55.60
2024-03-14T15:02:16.218Z,55.90
2024-03-14T15:04:50.116Z,55.90
2024-03-14T15:07:22.835Z,56.00
2024-03-14T15:09:55.731Z,56.20
2024-03-14T15:12:28.471Z,56.20
2024-03-14T15:15:01.599Z,56.10
2024-03-14T15:17:40.254Z,56.00
2024-03-14T15:20:15.796Z,55.90
2024-03-14T15:22:54.526Z,56.00
2024-03-14T15:25:27.720Z,56.00
2024-03-14T15:28:00.484Z,55.90
2024-03-14T15:30:34.699Z,55.90
2024-03-14T15:33:07.935Z,55.90
2024-03-14T15:35:40.744Z,55.50
2024-03-14T15:38:13.484Z,55.50
2024-03-14T15:40:46.141Z,55.30
2024-03-14T15:43:18.750Z,55.30
2024-03-14T15:45:53.013Z,55.30
2024-03-14T15:48:26.665Z,55.30
2024-03-14T15:51:00.528Z,55.10
2024-03-14T15:53:34.124Z,54.90
2024-03-14T15:56:07.391Z,54.80
2024-03-14T15:58:43.424Z,54.70
2024-03-14T16:01:16.176Z,54.70
2024-03-14T16:03:50.136Z,54.00
2024-03-14T16:06:23.147Z,53.70
2024-03-14T16:08:58.274Z,53.80
2024-03-14T16:11:37.561Z,53.70
2024-03-14T16:14:10.248Z,53.70
2024-03-14T16:16:42.990Z,53.80
2024-03-14T16:19:20.253Z,53.90
2024-03-14T16:21:53.148Z,54.00
2024-03-14T16:24:27.832Z,54.00
2024-03-14T16:27:00.699Z,54.20
2024-03-14T16:29:33.401Z,54.60
2024-03-14T16:32:07.331Z,54.80
2024-03-14T16:34:39.934Z,55.10
2024-03-14T16:37:14.138Z,55.50
2024-03-14T16:39:47.986Z,55.80
2024-03-14T16:42:22.082Z,56.00
2024-03-14T16:44:57.000Z,56.10
2024-03-14T16:47:29.699Z,56.30
2024-03-14T16:50:02.805Z,56.40
2024-03-14T16:52:35.446Z,56.40
2024-03-14T16:55:08.122Z,56.50
2024-03-14T16:57:45.457Z,56.70
2024-03-14T17:00:23.625Z,56.70
2024-03-14T17:02:56.865Z,56.80
2024-03-14T17:05:30.502Z,56.90
2024-03-14T17:08:08.223Z,57.00
2024-03-14T17:10:41.421Z,57.00
2024-03-14T17:13:17.372Z,57.00
2024-03-14T17:15:52.211Z,57.00
2024-03-14T17:18:27.197Z,57.20
2024-03-14T17:21:02.406Z,57.30
2024-03-14T17:23:36.269Z,57.30
2024-03-14T17:26:08.909Z,57.30
2024-03-14T17:28:41.615Z,57.30
2024-03-14T17:31:15.154Z,57.40
2024-03-14T17:33:49.776Z,57.50
2024-03-14T17:36:24.236Z,57.60
2024-03-14T17:38:58.533Z,57.60
2024-03-14T17:41:38.785Z,57.60
2024-03-14T17:44:12.144Z,57.60
2024-03-14T17:46:46.082Z,57.60
2024-03-14T17:49:22.406Z,57.70
2024-03-14T17:51:55.725Z,57.70
2024-03-14T17:54:28.431Z,57.80
2024-03-14T17:57:02.235Z,57.80
2024-03-14T17:59:38.499Z,57.80
2024-03-14T18:02:14.138Z,57.80
2024-03-14T18:04:47.345Z,57.90
2024-03-14T18:07:20.975Z,58.00
2024-03-14T18:09:56.298Z,58.00
2024-03-14T18:12:32.578Z,58.00
2024-03-14T18:15:10.818Z,58.20
2024-03-14T18:17:44.858Z,58.10
2024-03-14T18:20:19.882Z,58.20
2024-03-14T18:23:11.203Z,58.20
2024-03-14T18:25:58.661Z,58.30
2024-03-14T18:28:33.659Z,58.50
2024-03-14T18:31:14.515Z,58.50
2024-03-14T18:33:48.453Z,58.60
2024-03-14T18:36:23.237Z,58.70
2024-03-14T18:39:02.310Z,58.70
2024-03-14T18:41:37.495Z,58.80
2024-03-14T18:44:27.153Z,58.80
2024-03-14T18:47:06.498Z,58.90
2024-03-14T18:49:46.462Z,58.90
2024-03-14T18:52:31.240Z,58.90
2024-03-14T18:55:13.279Z,59.00
2024-03-14T18:57:48.856Z,59.00
2024-03-14T19:00:32.696Z,59.10
2024-03-14T19:03:06.331Z,59.10
2024-03-14T19:05:41.727Z,59.00
2024-03-14T19:08:23.053Z,59.00
2024-03-14T19:11:03.892Z,59.10
2024-03-14T19:13:48.505Z,59.20
2024-03-14T19:16:26.393Z,59.20
2024-03-14T19:19:09.557Z,59.20
2024-03-14T19:21:45.315Z,59.20
2024-03-14T19:24:21.444Z,59.30
2024-03-14T19:26:56.529Z,59.30
2024-03-14T19:29:33.140Z,59.40
2024-03-14T19:32:10.510Z,59.40
2024-03-14T19:34:45.366Z,59.40
2024-03-14T19:37:20.574Z,59.40
2024-03-14T19:39:55.800Z,59.50
2024-03-14T19:42:30.190Z,59.50
2024-03-14T19:45:11.126Z,59.50
2024-03-14T19:47:47.475Z,59.50
2024-03-14T19:50:23.406Z,59.60
2024-03-14T19:52:57.513Z,59.60
2024-03-14T19:55:32.574Z,59.60
2024-03-14T19:58:06.203Z,59.70
2024-03-14T20:00:38.831Z,59.60
2024-03-14T20:03:13.832Z,59.70
2024-03-14T20:05:46.505Z,59.80
2024-03-14T20:08:21.271Z,59.70
2024-03-14T20:10:55.599Z,59.70
2024-03-14T20:13:28.323Z,59.80
2024-03-14T20:16:03.066Z,59.80
2024-03-14T20:18:38.096Z,59.80
2024-03-14T20:21:12.789Z,59.90
2024-03-14T20:23:47.759Z,59.90
2024-03-14T20:26:22.455Z,60.00
2024-03-14T20:28:57.900Z,60.00
2024-03-14T20:31:32.411Z,60.50
2024-03-14T20:34:05.435Z,60.10
2024-03-14T20:36:41.997Z,60.20
2024-03-14T20:39:23.192Z,60.10
2024-03-14T20:41:55.962Z,60.10
2024-03-14T20:44:31.040Z,60.20
2024-03-14T20:47:04.343Z,60.30
2024-03-14T20:49:38.925Z,60.30
2024-03-14T20:52:14.646Z,60.30
2024-03-14T20:55:00.449Z,60.30
2024-03-14T20:57:44.168Z,60.40
2024-03-14T21:00:25.561Z,60.50
2024-03-14T21:03:00.865Z,61.50
2024-03-14T21:05:36.249Z,60.60
2024-03-14T21:08:20.822Z,60.60
2024-03-14T21:10:59.052Z,60.80
2024-03-14T21:13:36.586Z,60.70
2024-03-14T21:16:15.561Z,60.80
2024-03-14T21:18:52.114Z,60.90
2024-03-14T21:21:28.921Z,60.80
2024-03-14T21:24:07.252Z,60.90
2024-03-14T21:26:47.695Z,61.00
2024-03-14T21:29:23.428Z,61.10
2024-03-14T21:31:57.360Z,61.10
2024-03-14T21:34:39.601Z,61.10
2024-03-14T21:37:13.290Z,61.10
2024-03-14T21:39:49.396Z,61.10
2024-03-14T21:42:30.524Z,61.20
2024-03-14T21:45:08.604Z,61.30
2024-03-14T21:47:47.457Z,61.30
2024-03-14T21:50:25.125Z,61.40
2024-03-14T21:53:03.537Z,61.30
2024-03-14T21:55:39.058Z,61.30
2024-03-14T21:58:14.736Z,61.30
2024-03-14T22:00:51.111Z,61.30
2024-03-14T22:03:28.062Z,62.10
2024-03-14T22:06:02.110Z,61.30
2024-03-14T22:08:38.096Z,61.40
2024-03-14T22:11:16.876Z,61.40
2024-03-14T22:13:53.525Z,61.50
2024-03-14T22:16:29.946Z,61.50
2024-03-14T22:19:07.710Z,61.40
2024-03-14T22:21:41.921Z,61.50
2024-03-14T22:24:19.688Z,61.60
2024-03-14T22:26:54.035Z,61.60
2024-03-14T22:29:29.431Z,61.70
2024-03-14T22:32:05.648Z,61.70
2024-03-14T22:34:39.347Z,61.70
2024-03-14T22:37:13.360Z,61.70
2024-03-14T22:39:47.617Z,61.70
2024-03-14T22:42:21.077Z,61.70
2024-03-14T22:44:57.147Z,61.70
2024-03-14T22:47:31.032Z,61.70
2024-03-14T22:50:07.041Z,61.70
2024-03-14T22:52:42.257Z,61.70
2024-03-14T22:55:15.909Z,61.80
2024-03-14T22:57:51.671Z,61.80
2024-03-14T23:00:49.352Z,61.90
2024-03-14T23:03:24.613Z,61.80
2024-03-14T23:05:58.837Z,61.80
2024-03-14T23:08:34.460Z,61.90
2024-03-14T23:11:13.503Z,61.90
2024-03-14T23:13:48.351Z,62.00
2024-03-14T23:16:22.401Z,62.00
2024-03-14T23:18:55.487Z,62.00
2024-03-14T23:21:29.660Z,62.00
2024-03-14T23:24:08.103Z,61.90
2024-03-14T23:26:44.010Z,61.90
2024-03-14T23:29:18.491Z,61.90
2024-03-14T23:31:53.462Z,62.00
2024-03-14T23:34:27.611Z,62.00
2024-03-14T23:37:02.148Z,62.10
2024-03-14T23:39:35.317Z,62.10
2024-03-14T23:42:08.615Z,62.10
2024-03-14T23:44:41.063Z,62.10
2024-03-14T23:47:14.879Z,62.00
2024-03-14T23:49:47.747Z,62.00
2024-03-14T23:52:21.588Z,62.00
2024-03-14T23:54:55.215Z,62.10
2024-03-14T23:57:28.266Z,62.20
